createdAt,value
2017-05-26T00:00:59.734Z,0
2017-05-26T00:01:59.717Z,0
2017-05-26T00:02:59.884Z,0
2017-05-26T00:03:59.759Z,0
2017-05-26T00:04:59.734Z,0
2017-05-26T00:05:59.737Z,0
2017-05-26T00:06:59.737Z,0
2017-05-26T00:07:59.846Z,0
2017-05-26T00:08:59.697Z,0
2017-05-26T00:09:59.734Z,0
2017-05-26T00:10:59.739Z,0
2017-05-26T00:11:59.704Z,0
2017-05-26T00:12:59.739Z,0
2017-05-26T00:13:59.739Z,0
2017-05-26T00:14:59.745Z,0
2017-05-26T00:15:59.745Z,0
2017-05-26T00:16:59.735Z,0
2017-05-26T00:17:59.708Z,0
2017-05-26T00:18:59.712Z,0
2017-05-26T00:19:59.813Z,0
2017-05-26T00:20:59.711Z,0
2017-05-26T00:21:59.742Z,0
2017-05-26T00:22:59.713Z,0
2017-05-26T00:23:59.712Z,0
2017-05-26T00:24:59.712Z,0
2017-05-26T00:25:59.713Z,0
2017-05-26T00:26:59.717Z,0
2017-05-26T00:27:59.753Z,0
2017-05-26T00:28:59.741Z,0
2017-05-26T00:29:59.744Z,0
2017-05-26T00:30:59.853Z,0
2017-05-26T00:31:59.744Z,0
2017-05-26T00:32:59.747Z,0
2017-05-26T00:33:59.771Z,0
2017-05-26T00:34:59.743Z,0
2017-05-26T00:35:59.745Z,0
2017-05-26T00:36:59.778Z,0
2017-05-26T00:37:59.735Z,0
2017-05-26T00:38:59.747Z,0
2017-05-26T00:39:59.734Z,0
2017-05-26T00:40:59.739Z,0
2017-05-26T00:41:59.737Z,0
2017-05-26T00:42:59.747Z,0
2017-05-26T00:43:59.742Z,0
2017-05-26T00:44:59.736Z,0
2017-05-26T00:45:59.739Z,0
2017-05-26T00:46:59.741Z,0
2017-05-26T00:47:59.726Z,0
2017-05-26T00:48:59.729Z,0
2017-05-26T00:49:59.732Z,0
2017-05-26T00:50:59.726Z,0
2017-05-26T00:51:59.731Z,0
2017-05-26T00:52:59.729Z,0
2017-05-26T00:53:59.732Z,0
2017-05-26T00:54:59.730Z,0
2017-05-26T00:55:59.730Z,0
2017-05-26T00:56:59.727Z,0
2017-05-26T00:57:59.732Z,0
2017-05-26T00:58:59.752Z,0
2017-05-26T00:59:59.753Z,0
2017-05-26T01:00:59.758Z,0
2017-05-26T01:01:59.767Z,0
2017-05-26T01:02:59.765Z,0
2017-05-26T01:03:59.762Z,0
2017-05-26T01:04:59.734Z,0
2017-05-26T01:05:59.771Z,0
2017-05-26T01:06:59.763Z,0
2017-05-26T01:07:59.798Z,0
2017-05-26T01:08:59.740Z,0
2017-05-26T01:09:59.740Z,0
2017-05-26T01:10:59.741Z,0
2017-05-26T01:11:59.735Z,0
2017-05-26T01:12:59.741Z,0
2017-05-26T01:13:59.744Z,0
2017-05-26T01:14:59.744Z,0
2017-05-26T01:15:59.743Z,0
2017-05-26T01:16:59.743Z,0
2017-05-26T01:17:59.744Z,0
2017-05-26T01:18:59.799Z,0
2017-05-26T01:19:59.769Z,0
2017-05-26T01:20:59.779Z,0
2017-05-26T01:21:59.797Z,0
2017-05-26T01:22:59.778Z,0
2017-05-26T01:23:59.942Z,0
2017-05-26T01:24:59.779Z,0
2017-05-26T01:25:59.781Z,0
2017-05-26T01:26:59.801Z,0
2017-05-26T01:27:59.774Z,0
2017-05-26T01:28:59.785Z,0
2017-05-26T01:29:59.795Z,0
2017-05-26T01:30:59.777Z,0
2017-05-26T01:31:59.759Z,0
2017-05-26T01:32:59.887Z,0
2017-05-26T01:33:59.801Z,0
2017-05-26T01:34:59.784Z,0
2017-05-26T01:35:59.787Z,0
2017-05-26T01:36:59.776Z,0
2017-05-26T01:37:59.812Z,0
2017-05-26T01:38:59.785Z,0
2017-05-26T01:39:59.807Z,0
2017-05-26T01:40:59.778Z,0
2017-05-26T01:41:59.769Z,0
2017-05-26T01:42:59.783Z,0
2017-05-26T01:43:59.775Z,0
2017-05-26T01:44:59.780Z,0
2017-05-26T01:45:59.772Z,0
2017-05-26T01:46:59.812Z,0
2017-05-26T01:47:59.790Z,0
2017-05-26T01:48:59.772Z,0
2017-05-26T01:49:59.772Z,0
2017-05-26T01:50:59.769Z,0
2017-05-26T01:51:59.873Z,0
2017-05-26T01:52:59.771Z,0
2017-05-26T01:53:59.774Z,0
2017-05-26T01:54:59.774Z,0
2017-05-26T01:55:59.775Z,0
2017-05-26T01:56:59.772Z,0
2017-05-26T01:57:59.772Z,0
2017-05-26T01:58:59.778Z,0
2017-05-26T01:59:59.780Z,0
2017-05-26T02:00:59.778Z,0
2017-05-26T02:01:59.779Z,0
2017-05-26T02:02:59.765Z,0
2017-05-26T02:03:59.777Z,0
2017-05-26T02:04:59.783Z,0
2017-05-26T02:05:59.779Z,0
2017-05-26T02:06:59.781Z,0
2017-05-26T02:07:59.783Z,0
2017-05-26T02:08:59.767Z,0
2017-05-26T02:09:59.769Z,0
2017-05-26T02:10:59.768Z,0
2017-05-26T02:11:59.771Z,0
2017-05-26T02:12:59.769Z,0
2017-05-26T02:13:59.774Z,0
2017-05-26T02:14:59.771Z,0
2017-05-26T02:15:59.773Z,0
2017-05-26T02:16:59.772Z,0
2017-05-26T02:17:59.771Z,0
2017-05-26T02:18:59.797Z,0
2017-05-26T02:19:59.802Z,0
2017-05-26T02:20:59.830Z,0
2017-05-26T02:21:59.800Z,0
2017-05-26T02:22:59.807Z,0
2017-05-26T02:23:59.837Z,0
2017-05-26T02:24:59.794Z,0
2017-05-26T02:25:59.809Z,0
2017-05-26T02:26:59.809Z,0
2017-05-26T02:27:59.805Z,0
2017-05-26T02:28:59.791Z,0
2017-05-26T02:29:59.793Z,0
2017-05-26T02:30:59.877Z,0
2017-05-26T02:31:59.793Z,0
2017-05-26T02:32:59.798Z,0
2017-05-26T02:33:59.795Z,0
2017-05-26T02:34:59.796Z,0
2017-05-26T02:35:59.796Z,0
2017-05-26T02:36:59.799Z,0
2017-05-26T02:37:59.796Z,0
2017-05-26T02:38:59.800Z,0
2017-05-26T02:39:59.798Z,0
2017-05-26T02:40:59.797Z,0
2017-05-26T02:41:59.801Z,0
2017-05-26T02:42:59.801Z,0
2017-05-26T02:43:59.801Z,0
2017-05-26T02:44:59.798Z,0
2017-05-26T02:45:59.802Z,0
2017-05-26T02:46:59.803Z,0
2017-05-26T02:47:59.805Z,0
2017-05-26T02:48:59.787Z,0
2017-05-26T02:49:59.926Z,0
2017-05-26T02:50:59.822Z,0
2017-05-26T02:51:59.926Z,0
2017-05-26T02:52:59.819Z,0
2017-05-26T02:53:59.826Z,0
2017-05-26T02:54:59.818Z,0
2017-05-26T02:55:59.844Z,0
2017-05-26T02:56:59.849Z,0
2017-05-26T02:57:59.810Z,0
2017-05-26T02:58:59.795Z,0
2017-05-26T02:59:59.798Z,0
2017-05-26T03:00:59.792Z,0
2017-05-26T03:01:59.797Z,0
2017-05-26T03:02:59.795Z,0
2017-05-26T03:03:59.795Z,0
2017-05-26T03:04:59.799Z,0
2017-05-26T03:05:59.797Z,0
2017-05-26T03:06:59.798Z,0
2017-05-26T03:07:59.803Z,0
2017-05-26T03:08:59.818Z,0
2017-05-26T03:09:59.814Z,0
2017-05-26T03:10:59.811Z,0
2017-05-26T03:11:59.780Z,0
2017-05-26T03:12:59.814Z,0
2017-05-26T03:13:59.816Z,0
2017-05-26T03:14:59.814Z,0
2017-05-26T03:15:59.816Z,0
2017-05-26T03:16:59.815Z,0
2017-05-26T03:17:59.815Z,0
2017-05-26T03:18:59.841Z,0
2017-05-26T03:19:59.835Z,0
2017-05-26T03:20:59.864Z,0
2017-05-26T03:21:59.800Z,0
2017-05-26T03:22:59.834Z,0
2017-05-26T03:23:59.841Z,0
2017-05-26T03:24:59.807Z,0
2017-05-26T03:25:59.841Z,0
2017-05-26T03:26:59.873Z,0
2017-05-26T03:27:59.839Z,0
2017-05-26T03:28:59.843Z,0
2017-05-26T03:29:59.843Z,0
2017-05-26T03:30:59.839Z,0
2017-05-26T03:31:59.857Z,0
2017-05-26T03:32:59.847Z,0
2017-05-26T03:33:59.950Z,0
2017-05-26T03:34:59.953Z,0
2017-05-26T03:35:59.870Z,0
2017-05-26T03:36:59.846Z,0
2017-05-26T03:37:59.832Z,0
2017-05-26T03:38:59.819Z,0
2017-05-26T03:39:59.821Z,0
2017-05-26T03:40:59.828Z,0
2017-05-26T03:41:59.822Z,0
2017-05-26T03:42:59.815Z,0
2017-05-26T03:43:59.821Z,0
2017-05-26T03:44:59.819Z,0
2017-05-26T03:45:59.817Z,0
2017-05-26T03:46:59.820Z,0
2017-05-26T03:47:59.817Z,0
2017-05-26T03:48:59.818Z,0
2017-05-26T03:49:59.820Z,0
2017-05-26T03:50:59.822Z,0
2017-05-26T03:51:59.820Z,0
2017-05-26T03:52:59.855Z,0
2017-05-26T03:53:59.824Z,0
2017-05-26T03:54:59.826Z,0
2017-05-26T03:55:59.820Z,15
2017-05-26T03:56:59.828Z,13
2017-05-26T03:57:59.827Z,12
2017-05-26T03:58:59.826Z,12
2017-05-26T03:59:59.928Z,12
2017-05-26T04:00:59.827Z,13
2017-05-26T04:01:59.830Z,15
2017-05-26T04:02:59.829Z,19
2017-05-26T04:03:59.829Z,20
2017-05-26T04:04:59.827Z,23
2017-05-26T04:05:59.836Z,30
2017-05-26T04:06:59.826Z,33
2017-05-26T04:07:59.830Z,31
2017-05-26T04:08:59.840Z,25
2017-05-26T04:09:59.840Z,24
2017-05-26T04:10:59.951Z,29
2017-05-26T04:11:59.840Z,34
2017-05-26T04:12:59.844Z,31
2017-05-26T04:13:59.845Z,29
2017-05-26T04:14:59.845Z,34
2017-05-26T04:15:59.844Z,43
2017-05-26T04:16:59.846Z,46
2017-05-26T04:17:59.844Z,47
2017-05-26T04:18:59.888Z,48
2017-05-26T04:19:59.850Z,46
2017-05-26T04:20:59.850Z,44
2017-05-26T04:21:59.872Z,45
2017-05-26T04:22:59.890Z,49
2017-05-26T04:23:59.830Z,51
2017-05-26T04:24:59.878Z,56
2017-05-26T04:25:59.847Z,58
2017-05-26T04:26:59.868Z,61
2017-05-26T04:27:59.876Z,66
2017-05-26T04:28:59.867Z,72
2017-05-26T04:29:59.866Z,70
2017-05-26T04:30:59.868Z,66
2017-05-26T04:31:59.863Z,69
2017-05-26T04:32:59.873Z,76
2017-05-26T04:33:59.896Z,84
2017-05-26T04:34:59.842Z,86
2017-05-26T04:35:59.867Z,85
2017-05-26T04:36:59.876Z,77
2017-05-26T04:37:59.902Z,76
2017-05-26T04:38:59.872Z,76
2017-05-26T04:39:59.846Z,82
2017-05-26T04:40:59.841Z,90
2017-05-26T04:41:59.847Z,97
2017-05-26T04:42:59.847Z,97
2017-05-26T04:43:59.847Z,91
2017-05-26T04:44:59.852Z,84
2017-05-26T04:45:59.846Z,79
2017-05-26T04:46:59.945Z,81
2017-05-26T04:47:59.847Z,86
2017-05-26T04:48:59.850Z,88
2017-05-26T04:49:59.883Z,89
2017-05-26T04:50:59.842Z,87
2017-05-26T04:51:59.884Z,84
2017-05-26T04:52:59.885Z,85
2017-05-26T04:53:59.839Z,85
2017-05-26T04:54:59.840Z,85
2017-05-26T04:55:59.890Z,87
2017-05-26T04:56:59.932Z,88
2017-05-26T04:57:59.882Z,88
2017-05-26T04:58:59.877Z,86
2017-05-26T04:59:59.896Z,85
2017-05-26T05:00:59.882Z,87
2017-05-26T05:01:59.882Z,88
2017-05-26T05:02:59.891Z,92
2017-05-26T05:03:59.856Z,96
2017-05-26T05:04:59.879Z,99
2017-05-26T05:05:59.898Z,109
2017-05-26T05:06:59.882Z,117
2017-05-26T05:07:59.899Z,118
2017-05-26T05:08:59.869Z,120
2017-05-26T05:09:59.872Z,121
2017-05-26T05:10:59.975Z,120
2017-05-26T05:11:59.976Z,120
2017-05-26T05:12:59.873Z,118
2017-05-26T05:13:59.875Z,119
2017-05-26T05:14:59.877Z,122
2017-05-26T05:15:59.954Z,125
2017-05-26T05:16:59.874Z,130
2017-05-26T05:17:59.859Z,131
2017-05-26T05:18:59.875Z,130
2017-05-26T05:19:59.878Z,129
2017-05-26T05:20:59.881Z,128
2017-05-26T05:21:59.878Z,127
2017-05-26T05:22:59.882Z,126
2017-05-26T05:23:59.873Z,125
2017-05-26T05:24:59.973Z,132
2017-05-26T05:25:59.879Z,136
2017-05-26T05:26:59.881Z,139
2017-05-26T05:27:59.882Z,142
2017-05-26T05:28:59.882Z,142
2017-05-26T05:29:59.902Z,146
2017-05-26T05:30:59.907Z,145
2017-05-26T05:31:59.912Z,143
2017-05-26T05:32:59.903Z,142
2017-05-26T05:33:59.901Z,140
2017-05-26T05:34:59.913Z,139
2017-05-26T05:35:59.907Z,146
2017-05-26T05:36:59.905Z,150
2017-05-26T05:37:59.955Z,154
2017-05-26T05:38:59.958Z,156
2017-05-26T05:39:59.877Z,159
2017-05-26T05:40:59.912Z,158
2017-05-26T05:41:59.903Z,161
2017-05-26T05:42:59.923Z,162
2017-05-26T05:43:59.909Z,162
2017-05-26T05:44:59.885Z,164
2017-05-26T05:45:59.905Z,167
2017-05-26T05:47:00.121Z,167
2017-05-26T05:47:59.913Z,167
2017-05-26T05:48:59.902Z,166
2017-05-26T05:49:59.959Z,164
2017-05-26T05:50:59.896Z,162
2017-05-26T05:51:59.917Z,153
2017-05-26T05:52:59.885Z,153
2017-05-26T05:53:59.853Z,157
2017-05-26T05:54:59.914Z,169
2017-05-26T05:55:59.908Z,181
2017-05-26T05:56:59.917Z,189
2017-05-26T05:57:59.908Z,190
2017-05-26T05:59:00.023Z,185
2017-05-26T05:59:59.929Z,178
2017-05-26T06:00:59.886Z,168
2017-05-26T06:01:59.918Z,156
2017-05-26T06:02:59.933Z,143
2017-05-26T06:03:59.968Z,132
2017-05-26T06:04:59.923Z,112
2017-05-26T06:05:59.924Z,114
2017-05-26T06:06:59.935Z,111
2017-05-26T06:07:59.913Z,103
2017-05-26T06:08:59.923Z,99
2017-05-26T06:09:59.882Z,94
2017-05-26T06:10:59.886Z,91
2017-05-26T06:11:59.884Z,96
2017-05-26T06:12:59.890Z,97
2017-05-26T06:13:59.888Z,103
2017-05-26T06:14:59.901Z,107
2017-05-26T06:15:59.888Z,116
2017-05-26T06:16:59.892Z,118
2017-05-26T06:17:59.890Z,120
2017-05-26T06:18:59.888Z,118
2017-05-26T06:19:59.901Z,120
2017-05-26T06:20:59.912Z,125
2017-05-26T06:21:59.926Z,133
2017-05-26T06:22:59.928Z,143
2017-05-26T06:23:59.944Z,157
2017-05-26T06:24:59.907Z,172
2017-05-26T06:25:59.920Z,180
2017-05-26T06:26:59.930Z,193
2017-05-26T06:27:59.930Z,203
2017-05-26T06:28:59.938Z,212
2017-05-26T06:29:59.903Z,212
2017-05-26T06:30:59.916Z,234
2017-05-26T06:31:59.911Z,242
2017-05-26T06:32:59.914Z,251
2017-05-26T06:33:59.909Z,263
2017-05-26T06:34:59.909Z,258
2017-05-26T06:35:59.907Z,255
2017-05-26T06:36:59.908Z,255
2017-05-26T06:37:59.910Z,255
2017-05-26T06:38:59.909Z,394
2017-05-26T06:39:59.898Z,394
2017-05-26T06:40:59.901Z,394
2017-05-26T06:41:59.897Z,394
2017-05-26T06:42:59.998Z,394
2017-05-26T06:43:59.902Z,394
2017-05-26T06:44:59.998Z,394
2017-05-26T06:45:59.906Z,394
2017-05-26T06:46:59.900Z,394
2017-05-26T06:47:59.978Z,394
2017-05-26T06:48:59.902Z,394
2017-05-26T06:49:59.918Z,394
2017-05-26T06:50:59.920Z,394
2017-05-26T06:51:59.916Z,394
2017-05-26T06:52:59.920Z,394
2017-05-26T06:53:59.917Z,394
2017-05-26T06:54:59.923Z,394
2017-05-26T06:55:59.919Z,394
2017-05-26T06:56:59.920Z,394
2017-05-26T06:57:59.924Z,394
2017-05-26T06:58:59.921Z,394
2017-05-26T06:59:59.894Z,394
2017-05-26T07:00:59.848Z,394
2017-05-26T07:01:59.887Z,394
2017-05-26T07:02:59.890Z,394
2017-05-26T07:03:59.837Z,394
2017-05-26T07:04:59.902Z,394
2017-05-26T07:05:59.931Z,394
2017-05-26T07:06:59.850Z,394
2017-05-26T07:07:59.899Z,394
2017-05-26T07:08:59.943Z,394
2017-05-26T07:09:59.921Z,394
2017-05-26T07:10:59.920Z,394
2017-05-26T07:11:59.924Z,394
2017-05-26T07:12:59.922Z,394
2017-05-26T07:13:59.925Z,394
2017-05-26T07:14:59.932Z,394
2017-05-26T07:15:59.927Z,394
2017-05-26T07:16:59.932Z,394
2017-05-26T07:17:59.926Z,394
2017-05-26T07:18:59.931Z,394
2017-05-26T07:20:00.035Z,394
2017-05-26T07:20:59.927Z,394
2017-05-26T07:21:59.927Z,394
2017-05-26T07:22:59.922Z,394
2017-05-26T07:23:59.929Z,394
2017-05-26T07:24:59.934Z,394
2017-05-26T07:25:59.928Z,394
2017-05-26T07:26:59.933Z,394
2017-05-26T07:27:59.935Z,394
2017-05-26T07:28:59.933Z,394
2017-05-26T07:29:59.934Z,394
2017-05-26T07:31:00.038Z,394
2017-05-26T07:31:59.935Z,394
2017-05-26T07:32:59.932Z,394
2017-05-26T07:33:59.932Z,394
2017-05-26T07:34:59.932Z,394
2017-05-26T07:35:59.937Z,394
2017-05-26T07:36:59.936Z,394
2017-05-26T07:37:59.935Z,394
2017-05-26T07:38:59.939Z,394
2017-05-26T07:39:59.938Z,394
2017-05-26T07:40:59.939Z,394
2017-05-26T07:41:59.943Z,394
2017-05-26T07:42:59.937Z,394
2017-05-26T07:43:59.942Z,394
2017-05-26T07:44:59.944Z,394
2017-05-26T07:45:59.946Z,394
2017-05-26T07:46:59.942Z,394
2017-05-26T07:47:59.948Z,394
2017-05-26T07:48:59.945Z,394
2017-05-26T07:49:59.946Z,394
2017-05-26T07:50:59.965Z,394
2017-05-26T07:51:59.977Z,394
2017-05-26T07:52:59.974Z,394
2017-05-26T07:53:59.975Z,394
2017-05-26T07:54:59.973Z,394
2017-05-26T07:55:59.970Z,394
2017-05-26T07:56:59.977Z,394
2017-05-26T07:58:00.053Z,394
2017-05-26T07:58:59.988Z,394
2017-05-26T07:59:59.979Z,394
2017-05-26T08:00:59.980Z,394
2017-05-26T08:01:59.979Z,394
2017-05-26T08:02:59.983Z,394
2017-05-26T08:03:59.979Z,394
2017-05-26T08:04:59.984Z,394
2017-05-26T08:05:59.942Z,394
2017-05-26T08:06:59.981Z,394
2017-05-26T08:07:59.978Z,394
2017-05-26T08:08:59.987Z,394
2017-05-26T08:09:59.980Z,846
2017-05-26T08:10:59.892Z,844
2017-05-26T08:11:59.895Z,844
2017-05-26T08:12:59.964Z,844
2017-05-26T08:13:59.931Z,0
2017-05-26T08:14:59.946Z,846
2017-05-26T08:15:59.869Z,848
2017-05-26T08:16:59.926Z,848
2017-05-26T08:17:59.875Z,848
2017-05-26T08:18:59.931Z,848
2017-05-26T08:19:59.968Z,848
2017-05-26T08:20:59.925Z,848
2017-05-26T08:21:59.981Z,848
2017-05-26T08:22:59.983Z,848
2017-05-26T08:23:59.983Z,848
2017-05-26T08:24:59.979Z,848
2017-05-26T08:25:59.989Z,848
2017-05-26T08:26:59.989Z,848
2017-05-26T08:27:59.963Z,848
2017-05-26T08:28:59.979Z,848
2017-05-26T08:29:59.984Z,848
2017-05-26T08:31:00.005Z,848
2017-05-26T08:31:59.995Z,848
2017-05-26T08:32:59.933Z,848
2017-05-26T08:33:59.979Z,848
2017-05-26T08:34:59.960Z,848
2017-05-26T08:35:59.959Z,848
2017-05-26T08:36:59.984Z,848
2017-05-26T08:37:59.994Z,848
2017-05-26T08:38:59.991Z,848
2017-05-26T08:39:59.980Z,848
2017-05-26T08:40:59.964Z,848
2017-05-26T08:41:59.961Z,848
2017-05-26T08:43:00.026Z,848
2017-05-26T08:43:59.961Z,848
2017-05-26T08:44:59.963Z,848
2017-05-26T08:45:59.962Z,848
2017-05-26T08:46:59.964Z,848
2017-05-26T08:47:59.963Z,848
2017-05-26T08:48:59.963Z,848
2017-05-26T08:49:59.961Z,848
2017-05-26T08:51:00.005Z,848
2017-05-26T08:52:00.005Z,848
2017-05-26T08:52:59.991Z,848
2017-05-26T08:53:59.986Z,848
2017-05-26T08:55:00.013Z,848
2017-05-26T08:55:59.982Z,848
2017-05-26T08:57:00.006Z,848
2017-05-26T08:57:59.998Z,848
2017-05-26T08:59:00.015Z,848
2017-05-26T08:59:59.971Z,848
2017-05-26T09:00:59.945Z,848
2017-05-26T09:01:59.965Z,848
2017-05-26T09:02:59.934Z,848
2017-05-26T09:03:59.911Z,848
2017-05-26T09:04:59.896Z,848
2017-05-26T09:05:59.905Z,848
2017-05-26T09:06:59.910Z,848
2017-05-26T09:07:59.959Z,848
2017-05-26T09:08:59.997Z,848
2017-05-26T09:09:59.915Z,848
2017-05-26T09:10:59.988Z,848
2017-05-26T09:11:59.985Z,848
2017-05-26T09:12:59.991Z,848
2017-05-26T09:13:59.986Z,848
2017-05-26T09:14:59.990Z,848
2017-05-26T09:15:59.986Z,848
2017-05-26T09:16:59.992Z,848
2017-05-26T09:17:59.989Z,848
2017-05-26T09:18:59.992Z,848
2017-05-26T09:19:59.992Z,848
2017-05-26T09:21:00.019Z,848
2017-05-26T09:22:00.024Z,848
2017-05-26T09:23:00.008Z,848
2017-05-26T09:24:00.020Z,848
2017-05-26T09:24:59.991Z,848
2017-05-26T09:26:00.012Z,848
2017-05-26T09:27:00.019Z,848
2017-05-26T09:28:00.023Z,848
2017-05-26T09:29:00.012Z,848
2017-05-26T09:30:00.022Z,848
2017-05-26T09:31:00.020Z,848
2017-05-26T09:31:59.950Z,848
2017-05-26T09:33:00.028Z,848
2017-05-26T09:34:00.025Z,848
2017-05-26T09:35:00.024Z,848
2017-05-26T09:35:59.951Z,848
2017-05-26T09:37:00.010Z,848
2017-05-26T09:38:00.014Z,848
2017-05-26T09:39:00.008Z,848
2017-05-26T09:40:00.030Z,848
2017-05-26T09:41:00.042Z,848
2017-05-26T09:42:00.042Z,848
2017-05-26T09:43:00.031Z,848
2017-05-26T09:43:59.954Z,848
2017-05-26T09:45:00.033Z,848
2017-05-26T09:46:00.040Z,848
2017-05-26T09:46:59.998Z,848
2017-05-26T09:48:00.031Z,848
2017-05-26T09:49:00.029Z,848
2017-05-26T09:50:00.033Z,848
2017-05-26T09:51:00.004Z,848
2017-05-26T09:52:00.006Z,848
2017-05-26T09:53:00.004Z,848
2017-05-26T09:54:00.006Z,848
2017-05-26T09:55:00.004Z,848
2017-05-26T09:56:00.009Z,848
2017-05-26T09:57:00.009Z,848
2017-05-26T09:58:00.010Z,848
2017-05-26T09:59:00.011Z,848
2017-05-26T10:00:00.010Z,848
2017-05-26T10:01:00.010Z,848
2017-05-26T10:02:00.010Z,848
2017-05-26T10:03:00.011Z,848
2017-05-26T10:04:00.018Z,848
2017-05-26T10:05:00.013Z,848
2017-05-26T10:06:00.014Z,848
2017-05-26T10:07:00.013Z,848
2017-05-26T10:08:00.119Z,848
2017-05-26T10:09:00.018Z,848
2017-05-26T10:10:00.036Z,848
2017-05-26T10:11:00.043Z,848
2017-05-26T10:12:00.048Z,848
2017-05-26T10:13:00.050Z,848
2017-05-26T10:14:00.049Z,848
2017-05-26T10:15:00.047Z,848
2017-05-26T10:16:00.008Z,848
2017-05-26T10:17:00.046Z,848
2017-05-26T10:18:00.032Z,848
2017-05-26T10:19:00.049Z,848
2017-05-26T10:20:00.052Z,848
2017-05-26T10:21:00.063Z,848
2017-05-26T10:22:00.024Z,848
2017-05-26T10:23:00.054Z,848
2017-05-26T10:24:00.056Z,848
2017-05-26T10:25:00.055Z,848
2017-05-26T10:25:59.973Z,848
2017-05-26T10:27:00.042Z,848
2017-05-26T10:28:00.033Z,848
2017-05-26T10:29:00.060Z,848
2017-05-26T10:30:00.059Z,848
2017-05-26T10:30:59.953Z,848
2017-05-26T10:31:59.948Z,848
2017-05-26T10:32:59.986Z,848
2017-05-26T10:33:59.986Z,848
2017-05-26T10:35:00.016Z,848
2017-05-26T10:35:59.957Z,848
2017-05-26T10:37:00.009Z,848
2017-05-26T10:37:59.945Z,848
2017-05-26T10:39:00.008Z,848
2017-05-26T10:39:59.966Z,848
2017-05-26T10:41:00.065Z,848
2017-05-26T10:42:00.053Z,848
2017-05-26T10:43:00.077Z,848
2017-05-26T10:44:00.064Z,848
2017-05-26T10:45:00.069Z,848
2017-05-26T10:46:00.080Z,848
2017-05-26T10:47:00.048Z,848
2017-05-26T10:48:00.069Z,848
2017-05-26T10:49:00.067Z,848
2017-05-26T10:50:00.053Z,848
2017-05-26T10:51:00.141Z,848
2017-05-26T10:52:00.038Z,848
2017-05-26T10:53:00.043Z,848
2017-05-26T10:54:00.044Z,848
2017-05-26T10:55:00.046Z,848
2017-05-26T10:56:00.043Z,848
2017-05-26T10:57:00.048Z,848
2017-05-26T10:58:00.047Z,848
2017-05-26T10:59:00.046Z,848
2017-05-26T11:00:00.047Z,848
2017-05-26T11:01:00.044Z,848
2017-05-26T11:02:00.044Z,848
2017-05-26T11:03:00.045Z,848
2017-05-26T11:04:00.048Z,848
2017-05-26T11:05:00.049Z,848
2017-05-26T11:06:00.044Z,848
2017-05-26T11:07:00.049Z,848
2017-05-26T11:08:00.047Z,848
2017-05-26T11:09:00.048Z,848
2017-05-26T11:10:00.050Z,848
2017-05-26T11:11:00.018Z,848
2017-05-26T11:11:59.980Z,848
2017-05-26T11:12:59.963Z,848
2017-05-26T11:14:00.131Z,848
2017-05-26T11:15:00.063Z,848
2017-05-26T11:16:00.028Z,848
2017-05-26T11:17:00.066Z,848
2017-05-26T11:17:59.988Z,848
2017-05-26T11:19:00.127Z,848
2017-05-26T11:20:00.065Z,848
2017-05-26T11:21:00.036Z,848
2017-05-26T11:22:00.047Z,848
2017-05-26T11:23:00.045Z,848
2017-05-26T11:24:00.054Z,848
2017-05-26T11:25:00.047Z,848
2017-05-26T11:26:00.060Z,848
2017-05-26T11:27:00.050Z,848
2017-05-26T11:28:00.051Z,848
2017-05-26T11:29:00.052Z,848
2017-05-26T11:30:00.057Z,848
2017-05-26T11:31:00.055Z,848
2017-05-26T11:32:00.090Z,848
2017-05-26T11:33:00.089Z,848
2017-05-26T11:34:00.085Z,848
2017-05-26T11:35:00.094Z,848
2017-05-26T11:36:00.078Z,848
2017-05-26T11:37:00.092Z,848
2017-05-26T11:38:00.092Z,848
2017-05-26T11:39:00.092Z,848
2017-05-26T11:40:00.184Z,848
2017-05-26T11:41:00.095Z,848
2017-05-26T11:42:00.066Z,848
2017-05-26T11:43:00.070Z,848
2017-05-26T11:44:00.068Z,848
2017-05-26T11:45:00.070Z,848
2017-05-26T11:46:00.067Z,848
2017-05-26T11:47:00.068Z,848
2017-05-26T11:48:00.070Z,848
2017-05-26T11:49:00.066Z,848
2017-05-26T11:50:00.074Z,848
2017-05-26T11:51:00.071Z,848
2017-05-26T11:52:00.069Z,848
2017-05-26T11:53:00.071Z,848
2017-05-26T11:54:00.075Z,848
2017-05-26T11:55:00.087Z,848
2017-05-26T11:56:00.075Z,848
2017-05-26T11:57:00.074Z,848
2017-05-26T11:58:00.075Z,848
2017-05-26T11:59:00.075Z,848
2017-05-26T12:00:00.077Z,848
2017-05-26T12:01:00.073Z,848
2017-05-26T12:02:00.066Z,848
2017-05-26T12:03:00.057Z,848
2017-05-26T12:04:00.066Z,848
2017-05-26T12:05:00.071Z,848
2017-05-26T12:06:00.067Z,848
2017-05-26T12:07:00.066Z,848
2017-05-26T12:08:00.072Z,848
2017-05-26T12:09:00.072Z,848
2017-05-26T12:10:00.071Z,848
2017-05-26T12:11:00.069Z,848
2017-05-26T12:12:00.108Z,848
2017-05-26T12:13:00.113Z,848
2017-05-26T12:14:00.115Z,848
2017-05-26T12:15:00.109Z,848
2017-05-26T12:16:00.095Z,848
2017-05-26T12:17:00.111Z,848
2017-05-26T12:18:00.122Z,848
2017-05-26T12:19:00.114Z,848
2017-05-26T12:20:00.109Z,848
2017-05-26T12:21:00.114Z,848
2017-05-26T12:22:00.036Z,848
2017-05-26T12:23:00.117Z,848
2017-05-26T12:24:00.089Z,848
2017-05-26T12:25:00.116Z,848
2017-05-26T12:26:00.108Z,848
2017-05-26T12:27:00.102Z,848
2017-05-26T12:28:00.110Z,848
2017-05-26T12:29:00.080Z,848
2017-05-26T12:30:00.128Z,848
2017-05-26T12:31:00.109Z,848
2017-05-26T12:32:00.117Z,848
2017-05-26T12:33:00.128Z,848
2017-05-26T12:34:00.124Z,848
2017-05-26T12:35:00.124Z,848
2017-05-26T12:36:00.117Z,848
2017-05-26T12:37:00.123Z,848
2017-05-26T12:38:00.132Z,848
2017-05-26T12:39:00.125Z,848
2017-05-26T12:40:00.104Z,848
2017-05-26T12:41:00.087Z,848
2017-05-26T12:42:00.126Z,848
2017-05-26T12:43:00.117Z,848
2017-05-26T12:44:00.127Z,848
2017-05-26T12:45:00.102Z,848
2017-05-26T12:46:00.120Z,848
2017-05-26T12:47:00.119Z,848
2017-05-26T12:48:00.217Z,848
2017-05-26T12:49:00.121Z,848
2017-05-26T12:50:00.140Z,848
2017-05-26T12:51:00.138Z,848
2017-05-26T12:52:00.143Z,848
2017-05-26T12:53:00.156Z,848
2017-05-26T12:54:00.130Z,848
2017-05-26T12:55:00.129Z,848
2017-05-26T12:56:00.127Z,848
2017-05-26T12:57:00.130Z,848
2017-05-26T12:58:00.127Z,848
2017-05-26T12:59:00.118Z,848
2017-05-26T13:00:00.144Z,848
2017-05-26T13:01:00.123Z,848
2017-05-26T13:02:00.101Z,848
2017-05-26T13:03:00.092Z,848
2017-05-26T13:04:00.098Z,848
2017-05-26T13:05:00.099Z,848
2017-05-26T13:06:00.106Z,848
2017-05-26T13:07:00.094Z,848
2017-05-26T13:08:00.105Z,848
2017-05-26T13:09:00.103Z,848
2017-05-26T13:10:00.101Z,848
2017-05-26T13:11:00.102Z,848
2017-05-26T13:12:00.143Z,848
2017-05-26T13:13:00.129Z,848
2017-05-26T13:14:00.102Z,848
2017-05-26T13:15:00.140Z,848
2017-05-26T13:16:00.142Z,848
2017-05-26T13:17:00.142Z,848
2017-05-26T13:18:00.143Z,848
2017-05-26T13:19:00.114Z,848
2017-05-26T13:20:00.145Z,848
2017-05-26T13:21:00.135Z,848
2017-05-26T13:22:00.145Z,848
2017-05-26T13:23:00.149Z,848
2017-05-26T13:24:00.138Z,848
2017-05-26T13:25:00.146Z,848
2017-05-26T13:26:00.145Z,848
2017-05-26T13:27:00.141Z,848
2017-05-26T13:28:00.148Z,848
2017-05-26T13:29:00.155Z,848
2017-05-26T13:30:00.161Z,848
2017-05-26T13:31:00.157Z,848
2017-05-26T13:32:00.152Z,848
2017-05-26T13:33:00.147Z,848
2017-05-26T13:34:00.140Z,848
2017-05-26T13:35:00.150Z,848
2017-05-26T13:36:00.153Z,848
2017-05-26T13:37:00.140Z,848
2017-05-26T13:38:00.155Z,848
2017-05-26T13:39:00.155Z,848
2017-05-26T13:40:00.156Z,848
2017-05-26T13:41:00.157Z,848
2017-05-26T13:42:00.157Z,848
2017-05-26T13:43:00.149Z,848
2017-05-26T13:44:00.145Z,848
2017-05-26T13:45:00.156Z,848
2017-05-26T13:46:00.159Z,848
2017-05-26T13:47:00.155Z,848
2017-05-26T13:48:00.150Z,848
2017-05-26T13:49:00.159Z,848
2017-05-26T13:50:00.083Z,848
2017-05-26T13:51:00.157Z,848
2017-05-26T13:52:00.127Z,848
2017-05-26T13:53:00.125Z,848
2017-05-26T13:54:00.127Z,848
2017-05-26T13:55:00.123Z,848
2017-05-26T13:56:00.117Z,848
2017-05-26T13:57:00.125Z,848
2017-05-26T13:58:00.121Z,848
2017-05-26T13:59:00.129Z,848
2017-05-26T14:00:00.124Z,848
2017-05-26T14:01:00.129Z,848
2017-05-26T14:02:00.132Z,848
2017-05-26T14:03:00.134Z,848
2017-05-26T14:04:00.131Z,848
2017-05-26T14:05:00.128Z,848